Главная страница
METAR-TAF:

METAR-TAF

Аэропорты :

Тунис-Карфаген

Тунис, Тунис

широта: 36-50N, долгота: 010-14E, высота над уровнем моря: 3 м

Текущие метеонаблюдения

Эта сводка был подготовлена 20 минут назад, в 10:00 UTC
Ветер 9 Узел от северный
Температура 31°C
Влажность 38%
Давление 1019 hPa
Видимость 10 км и более
Нет облачности ниже 1500 м, и нет кучево-дождевой облачности

METAR: DTTA 261000Z 01009KT CAVOK 31/15 Q1019

Время: 11:20 (10:20 UTC)

Прогноз

Эта сводка был подготовлена 5 часа и 20 минут назад, в 05:00 UTC
Прогноз действительный с 26-го 06 UTC до 27-го 06 UTC
Ветер 5 Узел от северно-северо-западный
Видимость: 8000 м
небольшая облачность на высоте 4000 фута

TAF: DTTA 260500Z 2606/2706 34005KT 8000 FEW040

Метеонаблюдения и прогнозы для более 4000 аэропортов (сводки METAR и TAF).

Имеющиеся станции представлены на карте желтыми и красными точками.

Чтобы увидеть название станции, наведите на нее мышь.

Затем щелкните, чтобы увидеть метеонаблюдения и метеопрогнозы.

Управление картой: чтобы увеличить масштаб, щелкните зеленые кнопки с черным крестиком; чтобы уменьшить масштаб, щелкните зеленую кнопку с тире; для просмотра соседних карт щелкайте зеленые стрелки.


METAR-TAF: